Time;durP1;ratioP1;P1;durP2;ratioP2;P2;SDS_P1;SDS_P2;PMS_P1;PMS_P2;Temp;Humidity;BMP_temperature;BMP_pressure;BME280_temperature;BME280_humidity;BME280_pressure;Samples;Min_cycle;Max_cycle;Signal;HPM_P1;HPM_P2
2021/11/04 00:00:19;;;;;;;40.20;25.10;;;8.40;99.90;;;;;;5008584;28;20462;-44
2021/11/04 00:02:45;;;;;;;40.17;24.77;;;8.40;99.90;;;;;;5021580;28;20536;-44
2021/11/04 00:05:12;;;;;;;37.73;24.63;;;8.50;99.90;;;;;;5022794;28;20441;-44
2021/11/04 00:07:38;;;;;;;34.50;22.60;;;8.50;99.90;;;;;;5019706;28;20253;-45
2021/11/04 00:10:07;;;;;;;35.90;22.53;;;8.40;99.90;;;;;;5024402;28;20854;-44
2021/11/04 00:12:32;;;;;;;37.90;25.67;;;8.50;99.90;;;;;;5024004;28;20432;-44
2021/11/04 00:14:58;;;;;;;36.67;24.77;;;8.20;99.90;;;;;;5016193;28;20455;-45
2021/11/04 00:17:24;;;;;;;39.20;24.80;;;8.40;99.90;;;;;;5012038;28;20517;-45
2021/11/04 00:19:49;;;;;;;36.43;23.70;;;8.40;99.90;;;;;;5008966;28;20199;-45
2021/11/04 00:22:15;;;;;;;42.60;25.33;;;8.40;99.90;;;;;;5008514;28;20345;-45
2021/11/04 00:24:41;;;;;;;38.07;23.40;;;8.40;99.90;;;;;;5017226;28;20287;-45
2021/11/04 00:27:07;;;;;;;42.60;24.53;;;8.70;99.90;;;;;;5022667;28;20425;-45
2021/11/04 00:29:33;;;;;;;44.70;25.63;;;8.40;99.90;;;;;;5016976;28;20187;-45
2021/11/04 00:32:00;;;;;;;39.80;24.70;;;8.40;99.90;;;;;;5008049;28;20493;-48
2021/11/04 00:34:27;;;;;;;44.13;25.90;;;8.50;99.90;;;;;;5007488;28;20519;-46
2021/11/04 00:36:53;;;;;;;44.20;26.77;;;8.60;99.90;;;;;;5008492;28;20868;-45
2021/11/04 00:39:18;;;;;;;38.50;24.17;;;8.50;99.90;;;;;;5011777;28;20454;-44
2021/11/04 00:41:44;;;;;;;40.87;26.43;;;8.40;99.90;;;;;;5018720;28;20218;-45
2021/11/04 00:44:10;;;;;;;40.03;26.10;;;8.30;99.90;;;;;;5011555;28;20227;-45
2021/11/04 00:46:36;;;;;;;39.70;25.17;;;8.30;99.90;;;;;;5008405;28;20187;-44
2021/11/04 00:49:02;;;;;;;36.57;24.47;;;8.30;99.90;;;;;;5015973;28;20517;-45
2021/11/04 00:51:28;;;;;;;42.73;26.00;;;8.30;99.90;;;;;;5008632;28;20932;-45
2021/11/04 00:53:54;;;;;;;45.70;26.90;;;8.50;99.90;;;;;;5011105;28;20521;-47
2021/11/04 00:56:21;;;;;;;41.07;26.40;;;8.50;99.90;;;;;;5018925;28;20426;-46
2021/11/04 00:58:49;;;;;;;43.83;25.77;;;8.50;99.90;;;;;;5015274;28;20445;-47
2021/11/04 01:01:17;;;;;;;44.30;27.67;;;8.30;99.90;;;;;;5007569;28;20434;-44
2021/11/04 01:03:43;;;;;;;47.17;29.60;;;8.20;99.90;;;;;;5010932;28;20477;-44
2021/11/04 01:06:08;;;;;;;38.53;25.30;;;8.10;99.90;;;;;;5010555;28;20496;-44
2021/11/04 01:08:34;;;;;;;42.17;26.20;;;8.20;99.90;;;;;;5017690;28;20445;-44
2021/11/04 01:10:59;;;;;;;43.70;26.97;;;8.30;99.90;;;;;;5021330;28;20193;-45
2021/11/04 01:13:25;;;;;;;39.33;25.70;;;8.30;99.90;;;;;;5020847;28;20197;-47
2021/11/04 01:15:51;;;;;;;40.50;26.90;;;8.50;99.90;;;;;;5008351;28;20195;-45
2021/11/04 01:18:17;;;;;;;45.83;27.60;;;8.40;99.90;;;;;;5008118;28;20191;-44
2021/11/04 01:20:42;;;;;;;42.70;25.57;;;8.40;99.90;;;;;;5011103;28;20548;-45
2021/11/04 01:23:08;;;;;;;39.13;24.57;;;8.50;99.90;;;;;;5026364;28;20210;-45
2021/11/04 01:25:34;;;;;;;37.10;24.97;;;8.40;99.90;;;;;;5014760;28;20206;-46
2021/11/04 01:28:00;;;;;;;39.87;25.77;;;8.40;99.90;;;;;;5018556;28;20796;-49
2021/11/04 01:30:25;;;;;;;41.60;25.07;;;8.50;99.90;;;;;;5008131;28;20304;-47
2021/11/04 01:32:51;;;;;;;44.57;26.63;;;8.30;99.90;;;;;;5015200;28;20201;-44
2021/11/04 01:35:17;;;;;;;36.83;23.33;;;8.40;99.90;;;;;;5008638;28;20434;-44
2021/11/04 01:37:42;;;;;;;42.87;27.10;;;8.50;99.90;;;;;;5007395;28;20198;-45
2021/11/04 01:40:09;;;;;;;42.17;26.87;;;8.30;99.90;;;;;;5012515;28;20228;-45
2021/11/04 01:42:35;;;;;;;42.77;25.00;;;8.30;99.90;;;;;;5018798;28;20214;-47
2021/11/04 01:45:00;;;;;;;43.43;25.27;;;8.20;99.90;;;;;;5006881;28;20556;-46
2021/11/04 01:47:26;;;;;;;41.80;27.43;;;8.40;99.90;;;;;;5010975;28;20508;-44
2021/11/04 01:49:52;;;;;;;43.70;26.53;;;8.10;99.90;;;;;;5008057;28;20662;-46
2021/11/04 01:52:18;;;;;;;43.70;27.50;;;8.20;99.90;;;;;;5006873;28;20433;-45
2021/11/04 01:54:43;;;;;;;47.00;27.20;;;8.20;99.90;;;;;;5013313;28;20190;-45
2021/11/04 01:57:09;;;;;;;43.07;25.43;;;8.10;99.90;;;;;;5014039;28;20525;-49
2021/11/04 01:59:35;;;;;;;43.13;25.77;;;8.30;99.90;;;;;;5010834;28;20508;-45
2021/11/04 02:02:13;;;;;;;45.70;28.30;;;8.20;99.90;;;;;;5006794;28;20191;-44
2021/11/04 02:04:58;;;;;;;47.23;28.90;;;8.00;99.90;;;;;;5012918;28;20190;-46
2021/11/04 02:07:54;;;;;;;45.23;28.03;;;8.10;99.90;;;;;;5023628;28;20418;-45
2021/11/04 02:11:25;;;;;;;45.70;26.63;;;8.00;99.90;;;;;;5008325;28;20426;-45
2021/11/04 02:14:13;;;;;;;46.10;27.30;;;8.00;99.90;;;;;;4998794;28;20426;-49
2021/11/04 02:16:40;;;;;;;43.03;27.23;;;8.00;99.90;;;;;;5003526;28;20430;-44
2021/11/04 02:19:21;;;;;;;45.40;28.37;;;8.30;99.90;;;;;;5006042;28;20597;-44
2021/11/04 02:21:58;;;;;;;54.07;27.83;;;8.10;99.90;;;;;;5006580;28;20429;-48
2021/11/04 02:24:47;;;;;;;44.67;26.67;;;8.20;99.90;;;;;;5009672;28;20555;-45
2021/11/04 02:27:14;;;;;;;41.90;26.73;;;8.30;99.90;;;;;;5010956;28;20422;-44
2021/11/04 02:29:42;;;;;;;46.87;27.27;;;8.10;99.90;;;;;;5011362;28;20527;-51
2021/11/04 02:32:09;;;;;;;45.43;28.53;;;8.20;99.90;;;;;;5006176;28;20457;-46
2021/11/04 02:34:38;;;;;;;44.13;26.47;;;8.20;99.90;;;;;;5010408;28;20442;-44
2021/11/04 02:37:04;;;;;;;46.57;29.13;;;8.00;99.90;;;;;;5005724;28;20433;-45
2021/11/04 02:39:31;;;;;;;43.63;26.80;;;8.10;99.90;;;;;;5010723;28;20853;-44
2021/11/04 02:41:57;;;;;;;45.70;25.50;;;8.10;99.90;;;;;;5014567;28;20452;-47
2021/11/04 02:44:25;;;;;;;42.93;27.93;;;8.20;99.90;;;;;;5021712;28;20548;-46
2021/11/04 02:46:54;;;;;;;43.10;26.73;;;8.30;99.90;;;;;;5006147;28;20496;-47
2021/11/04 02:49:20;;;;;;;45.23;29.00;;;8.20;99.90;;;;;;5007912;28;20772;-45
2021/11/04 02:51:46;;;;;;;41.00;25.93;;;8.10;99.90;;;;;;5005803;28;20902;-44
2021/11/04 02:54:12;;;;;;;41.50;26.90;;;8.30;99.90;;;;;;5005755;28;20492;-46
2021/11/04 02:56:50;;;;;;;43.20;25.90;;;8.00;99.90;;;;;;5014509;28;20202;-46
2021/11/04 02:59:18;;;;;;;41.00;25.17;;;8.00;99.90;;;;;;5016233;28;20297;-46
2021/11/04 03:01:45;;;;;;;43.23;25.57;;;7.90;99.90;;;;;;5005890;28;20429;-49
2021/11/04 03:04:13;;;;;;;44.13;26.07;;;7.80;99.90;;;;;;5015188;28;20465;-48
2021/11/04 03:06:39;;;;;;;41.87;25.70;;;7.90;99.90;;;;;;5013044;28;20433;-46
2021/11/04 03:09:05;;;;;;;45.93;27.40;;;7.80;99.90;;;;;;5009756;28;20454;-49
2021/11/04 03:11:32;;;;;;;41.67;26.77;;;7.60;99.90;;;;;;5016943;28;20179;-45
2021/11/04 03:13:58;;;;;;;43.47;25.43;;;7.70;99.90;;;;;;5016065;28;20434;-47
2021/11/04 03:16:25;;;;;;;44.90;26.40;;;7.80;99.90;;;;;;5005780;28;20437;-47
2021/11/04 03:18:51;;;;;;;40.63;23.43;;;7.80;99.90;;;;;;5010718;28;20422;-45
2021/11/04 03:21:18;;;;;;;39.30;24.27;;;7.70;99.90;;;;;;5006063;28;20518;-46
2021/11/04 03:23:45;;;;;;;46.23;26.10;;;7.60;99.90;;;;;;5003579;28;20504;-48
2021/11/04 03:26:12;;;;;;;41.93;25.00;;;7.70;99.90;;;;;;5013937;28;20449;-47
2021/11/04 03:28:40;;;;;;;46.07;24.07;;;7.60;99.90;;;;;;5015567;28;20426;-47
2021/11/04 03:31:06;;;;;;;44.87;26.60;;;7.60;99.90;;;;;;5015175;28;20414;-45
2021/11/04 03:33:33;;;;;;;45.90;26.00;;;7.60;99.90;;;;;;5006814;28;20951;-44
2021/11/04 03:36:00;;;;;;;45.80;25.10;;;7.30;99.90;;;;;;5007885;28;20635;-47
2021/11/04 03:38:28;;;;;;;50.73;27.77;;;7.40;99.90;;;;;;5009332;28;20426;-45
2021/11/04 03:40:57;;;;;;;46.73;27.73;;;7.30;99.90;;;;;;5019273;28;20502;-46
2021/11/04 03:43:22;;;;;;;42.50;26.63;;;7.50;99.90;;;;;;5014687;28;20818;-45
2021/11/04 03:45:50;;;;;;;51.10;29.87;;;7.40;99.90;;;;;;5010493;28;20445;-46
2021/11/04 03:48:16;;;;;;;52.97;29.53;;;7.60;99.90;;;;;;5012142;28;20186;-47
2021/11/04 03:50:42;;;;;;;55.90;27.90;;;7.60;99.90;;;;;;5017391;28;20868;-47
2021/11/04 03:53:10;;;;;;;52.77;28.80;;;7.60;99.90;;;;;;5008934;28;20516;-44
2021/11/04 03:55:35;;;;;;;58.00;29.20;;;7.80;99.90;;;;;;5019560;28;20441;-47
2021/11/04 03:58:02;;;;;;;51.77;28.00;;;7.50;99.90;;;;;;5013436;28;20452;-45
2021/11/04 04:00:28;;;;;;;48.73;28.17;;;7.50;99.90;;;;;;5014603;28;20434;-45
2021/11/04 04:02:54;;;;;;;55.33;30.07;;;7.60;99.90;;;;;;5008357;28;20473;-44
2021/11/04 04:05:32;;;;;;;58.17;32.73;;;7.80;99.90;;;;;;5016192;28;20430;-46
2021/11/04 04:07:59;;;;;;;62.50;32.37;;;7.60;99.90;;;;;;5020119;28;20820;-44
2021/11/04 04:10:26;;;;;;;63.77;32.50;;;7.70;99.90;;;;;;5014109;28;20480;-45
2021/11/04 04:12:52;;;;;;;57.40;33.67;;;7.60;99.90;;;;;;5013218;28;20991;-44
2021/11/04 04:15:18;;;;;;;54.70;32.20;;;7.70;99.90;;;;;;5007864;28;20516;-45
2021/11/04 04:17:44;;;;;;;55.63;31.00;;;7.60;99.90;;;;;;5008681;28;20246;-46
2021/11/04 04:20:10;;;;;;;58.67;33.00;;;7.50;99.90;;;;;;5011875;28;20530;-46
2021/11/04 04:22:36;;;;;;;59.47;35.20;;;7.70;99.90;;;;;;5008660;28;20215;-46
2021/11/04 04:25:03;;;;;;;58.30;32.63;;;7.70;99.90;;;;;;5010497;28;20735;-46
2021/11/04 04:27:29;;;;;;;60.60;35.07;;;7.60;99.90;;;;;;5017832;28;20785;-44
2021/11/04 04:29:55;;;;;;;57.47;34.17;;;7.70;99.90;;;;;;5018183;28;20449;-47
2021/11/04 04:32:21;;;;;;;58.37;32.07;;;7.60;99.90;;;;;;5008487;28;20199;-45
2021/11/04 04:34:46;;;;;;;68.67;34.20;;;7.70;99.90;;;;;;5020171;28;20244;-46
2021/11/04 04:37:12;;;;;;;64.23;34.90;;;7.70;99.90;;;;;;5008558;28;20653;-46
2021/11/04 04:39:38;;;;;;;62.93;33.60;;;7.50;99.90;;;;;;5008225;28;20197;-45
2021/11/04 04:42:08;;;;;;;58.37;32.33;;;7.80;99.90;;;;;;5020151;28;20194;-45
2021/11/04 04:44:35;;;;;;;60.87;32.73;;;7.60;99.90;;;;;;5015880;28;20465;-45
2021/11/04 04:47:00;;;;;;;57.63;33.17;;;7.50;99.90;;;;;;5008250;28;20426;-46
2021/11/04 04:49:27;;;;;;;57.07;32.20;;;7.60;99.90;;;;;;5015447;28;20436;-44
2021/11/04 04:51:52;;;;;;;63.30;33.27;;;7.70;99.90;;;;;;5008064;28;20647;-46
2021/11/04 04:54:18;;;;;;;57.50;33.83;;;7.60;99.90;;;;;;5008974;28;20548;-45
2021/11/04 04:56:44;;;;;;;60.63;33.73;;;7.70;99.90;;;;;;5022535;28;20194;-47
2021/11/04 04:59:09;;;;;;;61.57;32.80;;;7.60;99.90;;;;;;5023356;28;20209;-45
2021/11/04 05:01:35;;;;;;;61.77;31.70;;;7.60;99.90;;;;;;5018945;28;20640;-46
2021/11/04 05:04:01;;;;;;;57.10;32.13;;;7.50;99.90;;;;;;5009592;28;20226;-46
2021/11/04 05:06:26;;;;;;;54.93;31.00;;;7.50;99.90;;;;;;5013099;28;20182;-44
2021/11/04 05:08:52;;;;;;;57.00;31.00;;;7.60;99.90;;;;;;5013352;28;20183;-45
2021/11/04 05:11:18;;;;;;;54.33;32.10;;;7.70;99.90;;;;;;5011000;28;20195;-45
2021/11/04 05:13:43;;;;;;;53.60;31.10;;;7.80;99.90;;;;;;5021749;28;20186;-45
2021/11/04 05:16:09;;;;;;;50.50;29.07;;;7.60;99.90;;;;;;5013593;28;20191;-45
2021/11/04 05:18:35;;;;;;;55.47;29.60;;;7.60;99.90;;;;;;5006384;28;20191;-48
2021/11/04 05:21:00;;;;;;;52.30;27.80;;;7.80;99.90;;;;;;5019858;28;20261;-47
2021/11/04 05:23:26;;;;;;;54.57;31.07;;;7.70;99.90;;;;;;5005343;28;20601;-45
2021/11/04 05:25:52;;;;;;;55.27;30.00;;;7.80;99.90;;;;;;5008314;28;20190;-45
2021/11/04 05:28:17;;;;;;;51.67;30.60;;;7.60;99.90;;;;;;5015280;28;20536;-44
2021/11/04 05:30:43;;;;;;;54.53;30.03;;;7.60;99.90;;;;;;5016598;28;20196;-44
2021/11/04 05:33:10;;;;;;;54.70;30.60;;;7.60;99.90;;;;;;5006540;28;20198;-45
2021/11/04 05:35:35;;;;;;;52.83;29.83;;;7.70;99.90;;;;;;5014972;28;20199;-44
2021/11/04 05:38:02;;;;;;;52.43;30.07;;;7.60;99.90;;;;;;5006900;28;21050;-46
2021/11/04 05:40:27;;;;;;;55.77;29.80;;;7.80;99.90;;;;;;5007433;28;20194;-44
2021/11/04 05:42:53;;;;;;;50.07;32.03;;;7.40;99.90;;;;;;5011610;28;20499;-46
2021/11/04 05:45:19;;;;;;;58.07;32.90;;;7.70;99.90;;;;;;5020499;28;20273;-44
2021/11/04 05:47:45;;;;;;;59.33;31.70;;;7.40;99.90;;;;;;5023431;28;20182;-44
2021/11/04 05:50:11;;;;;;;62.93;32.33;;;7.40;99.90;;;;;;5009175;28;20565;-47
2021/11/04 05:52:36;;;;;;;61.63;32.50;;;7.40;99.90;;;;;;5006495;28;20191;-48
2021/11/04 05:55:03;;;;;;;65.00;35.27;;;7.60;99.90;;;;;;5013799;28;20440;-46
2021/11/04 05:57:29;;;;;;;59.83;32.60;;;7.50;99.90;;;;;;5012390;28;20195;-48
2021/11/04 05:59:55;;;;;;;64.90;31.60;;;7.50;99.90;;;;;;5014424;28;20760;-46
2021/11/04 06:02:21;;;;;;;52.10;31.90;;;7.70;99.90;;;;;;5006757;28;20202;-45
2021/11/04 06:04:47;;;;;;;58.57;31.80;;;7.80;99.90;;;;;;5012357;28;20429;-48
2021/11/04 06:07:14;;;;;;;66.30;31.90;;;7.70;99.90;;;;;;5022209;28;20807;-44
2021/11/04 06:09:41;;;;;;;56.90;31.43;;;7.90;99.90;;;;;;5006657;28;20221;-49
2021/11/04 06:12:08;;;;;;;60.13;30.83;;;7.90;99.90;;;;;;5013242;28;20442;-48
2021/11/04 06:14:34;;;;;;;52.07;27.67;;;7.90;99.90;;;;;;5009444;28;20437;-45
2021/11/04 06:17:00;;;;;;;52.33;29.40;;;7.70;99.90;;;;;;5011828;28;20448;-46
2021/11/04 06:19:26;;;;;;;58.97;29.60;;;7.70;99.90;;;;;;5021373;28;20459;-45
2021/11/04 06:21:52;;;;;;;56.63;30.27;;;7.80;99.90;;;;;;5017374;28;20837;-47
2021/11/04 06:24:17;;;;;;;55.87;29.00;;;7.50;99.90;;;;;;5018547;28;20792;-45
2021/11/04 06:26:43;;;;;;;59.17;31.33;;;7.50;99.90;;;;;;5017254;28;20194;-47
2021/11/04 06:29:09;;;;;;;54.70;32.00;;;7.60;99.90;;;;;;5020882;28;20235;-45
2021/11/04 06:31:35;;;;;;;61.50;31.97;;;7.50;99.90;;;;;;5021135;28;20218;-45
2021/11/04 06:34:00;;;;;;;59.67;31.90;;;7.30;99.90;;;;;;5030291;28;20273;-44
2021/11/04 06:36:26;;;;;;;58.73;31.47;;;7.20;99.90;;;;;;5015901;28;20517;-46
2021/11/04 06:38:52;;;;;;;63.70;31.73;;;7.40;99.90;;;;;;5006381;28;20225;-45
2021/11/04 06:41:18;;;;;;;57.33;31.53;;;7.10;99.90;;;;;;5010927;28;20205;-44
2021/11/04 06:43:44;;;;;;;58.97;32.23;;;7.20;99.90;;;;;;5012553;28;20229;-45
2021/11/04 06:46:12;;;;;;;51.23;30.53;;;7.40;99.90;;;;;;5019768;28;20441;-45
2021/11/04 06:48:49;;;;;;;55.23;30.63;;;7.30;99.90;;;;;;5008682;28;20430;-46
2021/11/04 06:51:21;;;;;;;54.90;28.00;;;7.60;99.90;;;;;;5021163;28;20810;-47
2021/11/04 06:53:55;;;;;;;50.33;28.83;;;7.40;99.90;;;;;;5008139;28;20437;-46
2021/11/04 06:56:22;;;;;;;56.27;30.20;;;7.40;99.90;;;;;;5023097;28;20603;-49
2021/11/04 06:58:49;;;;;;;60.13;31.70;;;7.50;99.90;;;;;;5014233;28;20823;-47
2021/11/04 07:01:18;;;;;;;60.77;31.70;;;7.40;99.90;;;;;;5014565;28;20446;-47
2021/11/04 07:03:57;;;;;;;59.20;30.87;;;7.50;99.90;;;;;;5015626;28;20472;-47
2021/11/04 07:06:28;;;;;;;60.17;31.40;;;7.40;99.90;;;;;;5020399;28;20451;-45
2021/11/04 07:08:54;;;;;;;61.93;33.43;;;7.60;99.90;;;;;;5018851;28;20901;-45
2021/11/04 07:11:21;;;;;;;52.30;29.90;;;7.60;99.90;;;;;;5025160;28;20409;-49
2021/11/04 07:13:50;;;;;;;57.43;30.83;;;7.40;99.90;;;;;;5020152;28;20190;-47
2021/11/04 07:16:15;;;;;;;55.83;31.57;;;7.50;99.90;;;;;;5020056;28;20483;-45
2021/11/04 07:18:41;;;;;;;55.30;28.90;;;7.40;99.90;;;;;;5008393;28;20429;-46
2021/11/04 07:21:33;;;;;;;58.37;31.37;;;7.50;99.90;;;;;;5022740;28;20198;-48
2021/11/04 07:24:02;;;;;;;61.87;30.60;;;7.60;99.90;;;;;;5009003;28;20462;-47
2021/11/04 07:26:39;;;;;;;63.13;29.27;;;7.50;99.90;;;;;;5025962;28;20506;-49
2021/11/04 07:29:10;;;;;;;52.30;27.40;;;7.60;99.90;;;;;;5028047;28;21126;-44
2021/11/04 07:31:38;;;;;;;54.70;27.77;;;7.60;99.90;;;;;;5037588;28;20419;-45
2021/11/04 07:34:05;;;;;;;50.90;29.20;;;7.50;99.90;;;;;;5019222;28;20425;-44
2021/11/04 07:36:38;;;;;;;53.90;28.53;;;7.70;99.90;;;;;;5027227;28;20816;-44
2021/11/04 07:39:06;;;;;;;48.47;27.80;;;7.80;99.90;;;;;;5022008;28;20434;-46
2021/11/04 07:41:33;;;;;;;54.37;28.23;;;7.70;99.90;;;;;;5016009;28;20436;-46
2021/11/04 07:44:00;;;;;;;53.53;25.90;;;7.70;99.90;;;;;;5019536;28;21157;-44
2021/11/04 07:46:28;;;;;;;47.70;26.57;;;7.70;99.90;;;;;;5018146;28;20932;-46
2021/11/04 07:48:54;;;;;;;42.90;23.97;;;7.60;99.90;;;;;;5018158;28;20735;-45
2021/11/04 07:51:20;;;;;;;51.17;26.60;;;7.70;99.90;;;;;;5017155;28;20422;-48
2021/11/04 07:53:46;;;;;;;46.87;26.80;;;7.60;99.90;;;;;;5008780;28;20437;-45
2021/11/04 07:56:12;;;;;;;51.50;25.77;;;7.50;99.90;;;;;;5026341;28;20661;-44
2021/11/04 07:58:38;;;;;;;52.93;27.00;;;7.20;99.90;;;;;;5020160;28;20959;-47
2021/11/04 08:01:05;;;;;;;53.03;28.80;;;7.40;99.90;;;;;;5020658;28;20432;-44
2021/11/04 08:03:30;;;;;;;55.03;27.40;;;7.20;99.90;;;;;;5017313;28;20477;-50
2021/11/04 08:05:56;;;;;;;46.37;25.70;;;7.30;99.90;;;;;;5013391;28;20944;-45
2021/11/04 08:08:22;;;;;;;42.77;24.70;;;7.30;99.90;;;;;;5017997;28;20210;-48
2021/11/04 08:10:52;;;;;;;48.07;25.20;;;7.50;99.90;;;;;;5009083;28;20426;-45
2021/11/04 08:13:18;;;;;;;46.83;26.33;;;7.30;99.90;;;;;;5011668;28;20718;-45
2021/11/04 08:15:44;;;;;;;52.77;25.83;;;7.50;99.90;;;;;;5015195;28;20797;-45
2021/11/04 08:18:11;;;;;;;47.97;25.57;;;7.60;99.90;;;;;;5010509;28;20441;-44
2021/11/04 08:20:37;;;;;;;41.50;23.80;;;7.70;99.90;;;;;;5013059;28;20395;-45
2021/11/04 08:23:11;;;;;;;42.70;22.83;;;7.60;99.90;;;;;;5015559;28;20476;-45
2021/11/04 08:25:38;;;;;;;46.80;24.17;;;7.60;99.90;;;;;;5008700;28;20774;-46
2021/11/04 08:28:04;;;;;;;42.30;25.23;;;7.60;99.90;;;;;;5027717;28;20559;-47
2021/11/04 08:30:29;;;;;;;46.83;26.07;;;7.60;99.90;;;;;;5014598;28;20419;-47
2021/11/04 08:32:55;;;;;;;53.10;23.93;;;7.90;99.90;;;;;;5011998;28;21060;-44
2021/11/04 08:35:21;;;;;;;44.83;25.23;;;7.90;99.90;;;;;;5008613;28;20413;-45
2021/11/04 08:37:46;;;;;;;46.00;25.77;;;7.70;99.90;;;;;;5015028;28;20199;-48
2021/11/04 08:40:13;;;;;;;42.77;24.17;;;7.70;99.90;;;;;;5019381;28;20208;-45
2021/11/04 08:42:40;;;;;;;46.27;24.80;;;7.80;99.90;;;;;;5041247;28;20630;-46
2021/11/04 08:45:07;;;;;;;48.07;25.37;;;7.80;99.90;;;;;;5021859;28;20448;-44
2021/11/04 08:47:33;;;;;;;47.50;25.50;;;7.70;99.90;;;;;;5026092;28;20421;-45
2021/11/04 08:49:59;;;;;;;47.07;23.60;;;7.70;99.90;;;;;;5008013;28;20457;-47
2021/11/04 08:52:26;;;;;;;45.53;23.80;;;7.70;99.90;;;;;;5011444;28;20201;-44
2021/11/04 08:54:52;;;;;;;41.47;21.63;;;7.80;99.90;;;;;;5013455;28;20425;-50
2021/11/04 08:57:21;;;;;;;42.30;21.53;;;7.90;99.90;;;;;;5027151;28;20477;-44
2021/11/04 08:59:47;;;;;;;45.10;24.67;;;8.10;99.90;;;;;;5018975;28;20431;-45
2021/11/04 09:02:14;;;;;;;46.03;25.00;;;8.00;99.90;;;;;;5031314;28;20912;-49
2021/11/04 09:04:42;;;;;;;48.40;24.77;;;8.00;99.90;;;;;;5007229;28;20215;-49
2021/11/04 09:07:16;;;;;;;44.80;23.60;;;8.00;99.90;;;;;;5020661;28;20433;-45
2021/11/04 09:09:42;;;;;;;43.97;21.83;;;8.30;99.90;;;;;;5014899;28;20486;-44
2021/11/04 09:12:08;;;;;;;41.73;21.50;;;8.10;99.90;;;;;;5044375;28;20420;-44
2021/11/04 09:14:34;;;;;;;45.20;23.83;;;8.20;99.90;;;;;;5014196;28;20425;-46
2021/11/04 09:17:00;;;;;;;49.77;22.27;;;8.00;99.90;;;;;;5024117;28;20443;-46
2021/11/04 09:19:26;;;;;;;43.63;23.57;;;8.00;99.90;;;;;;5007945;28;20968;-44
2021/11/04 09:21:51;;;;;;;43.30;22.70;;;7.90;99.90;;;;;;5016530;28;20433;-46
2021/11/04 09:24:17;;;;;;;43.80;23.27;;;8.10;99.90;;;;;;5012206;28;20925;-44
2021/11/04 09:26:43;;;;;;;47.57;23.57;;;8.00;99.90;;;;;;5031188;28;20186;-47
2021/11/04 09:29:08;;;;;;;45.47;22.80;;;7.80;99.90;;;;;;5021880;28;20194;-45
2021/11/04 09:31:34;;;;;;;45.83;22.43;;;7.80;99.90;;;;;;5016867;28;20245;-44
2021/11/04 09:34:00;;;;;;;48.27;23.03;;;8.10;99.90;;;;;;5004543;28;20203;-44
2021/11/04 09:36:30;;;;;;;42.60;22.40;;;8.00;99.90;;;;;;5013127;28;20990;-44
2021/11/04 09:39:00;;;;;;;38.27;21.10;;;7.90;99.90;;;;;;5019796;28;20572;-45
2021/11/04 09:41:27;;;;;;;42.20;22.20;;;8.40;99.90;;;;;;5005985;28;20791;-46
2021/11/04 09:43:57;;;;;;;43.47;20.80;;;8.20;99.90;;;;;;5010281;28;20846;-45
2021/11/04 09:46:24;;;;;;;42.77;21.10;;;8.20;99.90;;;;;;5020491;28;20815;-45
2021/11/04 09:48:50;;;;;;;36.03;20.00;;;8.30;99.90;;;;;;5008989;28;21076;-50
2021/11/04 09:51:16;;;;;;;38.67;20.43;;;8.20;99.90;;;;;;5007689;28;20425;-47
2021/11/04 09:53:43;;;;;;;38.93;20.40;;;8.70;99.90;;;;;;5006461;28;20433;-45
2021/11/04 09:56:08;;;;;;;34.93;18.30;;;8.50;99.90;;;;;;5018775;28;20206;-45
2021/11/04 09:58:34;;;;;;;38.27;20.70;;;8.50;99.90;;;;;;5014274;28;20812;-45
2021/11/04 10:01:28;;;;;;;42.33;22.53;;;8.80;99.90;;;;;;5011008;28;20747;-45
2021/11/04 10:03:58;;;;;;;36.07;19.73;;;8.80;99.90;;;;;;5035719;28;20715;-45
2021/11/04 10:06:29;;;;;;;43.50;21.73;;;8.90;99.90;;;;;;5035398;28;20422;-46
2021/11/04 10:08:58;;;;;;;42.83;21.90;;;8.90;99.90;;;;;;5029997;28;20416;-47
2021/11/04 10:11:36;;;;;;;56.63;26.20;;;9.10;99.90;;;;;;5027007;28;20422;-48
2021/11/04 10:14:10;;;;;;;54.60;27.90;;;8.70;99.90;;;;;;5020357;28;20450;-49
2021/11/04 10:16:36;;;;;;;65.00;28.93;;;8.80;99.90;;;;;;5025406;28;20857;-45
2021/11/04 10:19:04;;;;;;;61.07;29.33;;;8.80;99.90;;;;;;5020765;28;20434;-45
2021/11/04 10:21:31;;;;;;;60.50;28.47;;;8.60;99.90;;;;;;5007707;28;20440;-45
2021/11/04 10:23:58;;;;;;;56.53;29.00;;;8.70;99.90;;;;;;5005944;28;20560;-47
2021/11/04 10:26:29;;;;;;;57.03;29.83;;;8.70;99.90;;;;;;5006071;28;20426;-48
2021/11/04 10:29:02;;;;;;;62.17;30.70;;;8.60;99.90;;;;;;5009866;28;20453;-46
2021/11/04 10:31:43;;;;;;;58.50;30.57;;;8.70;99.90;;;;;;5016799;28;20439;-45
2021/11/04 10:34:30;;;;;;;51.57;26.73;;;8.70;99.90;;;;;;5009159;28;20952;-44
2021/11/04 10:37:15;;;;;;;58.30;25.63;;;8.50;99.90;;;;;;5008900;28;20444;-46
2021/11/04 10:39:42;;;;;;;56.03;26.53;;;8.60;99.90;;;;;;5010560;28;20476;-50
2021/11/04 10:42:08;;;;;;;51.50;26.80;;;8.40;99.90;;;;;;5006415;28;20429;-45
2021/11/04 10:44:34;;;;;;;52.70;25.87;;;8.70;99.90;;;;;;5007331;28;21247;-45
2021/11/04 10:47:01;;;;;;;50.73;25.93;;;8.60;99.90;;;;;;5020674;28;20449;-47
2021/11/04 10:49:47;;;;;;;59.60;26.70;;;8.60;99.90;;;;;;5009428;28;20429;-47
2021/11/04 10:52:16;;;;;;;52.60;25.60;;;8.60;99.90;;;;;;5009851;28;20606;-49
2021/11/04 10:54:46;;;;;;;55.70;27.10;;;8.60;99.90;;;;;;5011167;28;20831;-47
2021/11/04 10:57:12;;;;;;;54.20;27.17;;;8.70;99.90;;;;;;5026072;28;20443;-47
2021/11/04 10:59:48;;;;;;;49.60;26.60;;;8.60;99.90;;;;;;5018676;28;20810;-45
2021/11/04 11:02:17;;;;;;;53.10;27.30;;;8.80;99.90;;;;;;5018218;28;20962;-48
2021/11/04 11:04:43;;;;;;;57.53;27.30;;;8.60;99.90;;;;;;5015944;28;20867;-45
2021/11/04 11:07:10;;;;;;;58.60;26.07;;;8.70;99.90;;;;;;5014367;28;20433;-45
2021/11/04 11:09:37;;;;;;;58.90;28.20;;;8.90;99.90;;;;;;5005881;28;20622;-47
2021/11/04 11:12:05;;;;;;;55.10;28.03;;;8.80;99.90;;;;;;5004045;28;20524;-45
2021/11/04 11:14:34;;;;;;;57.27;29.87;;;8.70;99.90;;;;;;5012677;28;20433;-48
2021/11/04 11:17:02;;;;;;;61.33;30.10;;;8.70;99.90;;;;;;5015049;28;20473;-46
2021/11/04 11:19:40;;;;;;;63.07;30.37;;;8.70;99.90;;;;;;5012662;28;20430;-47
2021/11/04 11:22:07;;;;;;;60.97;29.83;;;9.00;99.90;;;;;;5007306;28;20437;-45
2021/11/04 11:24:36;;;;;;;70.13;33.57;;;8.60;99.90;;;;;;5014958;28;20461;-45
2021/11/04 11:27:08;;;;;;;63.07;31.77;;;8.90;99.90;;;;;;5005764;28;20450;-45
2021/11/04 11:29:40;;;;;;;67.70;33.13;;;8.70;99.90;;;;;;5004273;28;20438;-45
2021/11/04 11:32:17;;;;;;;64.17;32.63;;;8.80;99.90;;;;;;5007280;28;20437;-47
2021/11/04 11:34:43;;;;;;;64.03;32.33;;;8.60;99.90;;;;;;5007646;28;20433;-45
2021/11/04 11:37:17;;;;;;;67.90;34.20;;;8.80;99.90;;;;;;5006643;28;20443;-47
2021/11/04 11:40:04;;;;;;;69.53;35.00;;;8.70;99.90;;;;;;5011447;28;20204;-46
2021/11/04 11:42:31;;;;;;;69.60;35.37;;;8.90;99.90;;;;;;5005897;28;20441;-45
2021/11/04 11:44:58;;;;;;;69.87;34.83;;;8.90;99.90;;;;;;5012772;28;20948;-45
2021/11/04 11:47:35;;;;;;;66.63;34.80;;;8.70;99.90;;;;;;5019380;28;20416;-48
2021/11/04 11:50:21;;;;;;;61.00;34.00;;;8.80;99.90;;;;;;5017174;28;20433;-46
2021/11/04 11:52:57;;;;;;;57.97;33.30;;;9.10;99.90;;;;;;5008050;28;20429;-45
2021/11/04 11:55:37;;;;;;;57.00;34.53;;;9.00;99.90;;;;;;5015724;28;20421;-47
2021/11/04 11:58:27;;;;;;;68.27;36.77;;;8.90;99.90;;;;;;5028635;28;20745;-45
2021/11/04 12:00:56;;;;;;;72.37;36.50;;;9.00;99.90;;;;;;5017890;28;20516;-44
2021/11/04 12:03:42;;;;;;;81.53;38.23;;;8.90;99.90;;;;;;5018648;28;20511;-45
2021/11/04 12:06:15;;;;;;;72.93;37.63;;;8.90;99.90;;;;;;5011836;28;20512;-48
2021/11/04 12:09:02;;;;;;;60.07;33.40;;;8.90;99.90;;;;;;5027227;28;20430;-47
2021/11/04 12:11:36;;;;;;;61.20;36.57;;;8.80;99.90;;;;;;5008874;28;20520;-47
2021/11/04 12:14:17;;;;;;;59.30;35.57;;;8.70;99.90;;;;;;5001101;28;20429;-46
2021/11/04 12:17:02;;;;;;;56.30;32.40;;;8.90;99.90;;;;;;5020537;28;20457;-45
2021/11/04 12:19:37;;;;;;;57.90;33.10;;;8.80;99.90;;;;;;5014719;28;20521;-45
2021/11/04 12:22:05;;;;;;;55.60;31.83;;;9.10;99.90;;;;;;5007434;28;20417;-47
2021/11/04 12:24:31;;;;;;;54.13;32.00;;;9.00;99.90;;;;;;5013630;28;20470;-45
2021/11/04 12:27:10;;;;;;;60.40;34.60;;;9.20;99.90;;;;;;5008497;28;20429;-44
2021/11/04 12:29:36;;;;;;;51.10;33.77;;;8.90;99.90;;;;;;5012169;28;20353;-45
2021/11/04 12:32:09;;;;;;;51.43;33.03;;;9.10;99.90;;;;;;5021815;28;20476;-44
2021/11/04 12:34:34;;;;;;;57.97;32.50;;;9.20;99.90;;;;;;5025723;28;20186;-46
2021/11/04 12:37:12;;;;;;;54.13;33.03;;;8.90;99.90;;;;;;5008259;28;20604;-44
2021/11/04 12:39:46;;;;;;;55.00;32.40;;;9.10;99.90;;;;;;5010291;28;20190;-47
2021/11/04 12:42:16;;;;;;;56.30;32.27;;;9.00;99.90;;;;;;5008193;28;20980;-45